sensor_id;sensor_type;location;lat;lon;timestamp;P1;durP1;ratioP1;P2;durP2;ratioP2
44850;SDS011;30583;48.714;9.386;2022-10-16T00:01:12;7.15;;;3.10;;
44850;SDS011;30583;48.714;9.386;2022-10-16T00:03:39;9.98;;;3.28;;
44850;SDS011;30583;48.714;9.386;2022-10-16T00:06:06;6.63;;;3.30;;
44850;SDS011;30583;48.714;9.386;2022-10-16T00:08:32;10.85;;;3.67;;
44850;SDS011;30583;48.714;9.386;2022-10-16T00:11:05;7.97;;;3.15;;
44850;SDS011;30583;48.714;9.386;2022-10-16T00:13:33;5.50;;;3.15;;
44850;SDS011;30583;48.714;9.386;2022-10-16T00:16:00;7.05;;;2.80;;
44850;SDS011;30583;48.714;9.386;2022-10-16T00:18:26;9.75;;;3.10;;
44850;SDS011;30583;48.714;9.386;2022-10-16T00:20:53;8.00;;;2.70;;
44850;SDS011;30583;48.714;9.386;2022-10-16T00:23:19;8.35;;;2.83;;
44850;SDS011;30583;48.714;9.386;2022-10-16T00:25:45;9.88;;;3.03;;
44850;SDS011;30583;48.714;9.386;2022-10-16T00:28:20;9.85;;;3.47;;
44850;SDS011;30583;48.714;9.386;2022-10-16T00:30:45;8.45;;;3.42;;
44850;SDS011;30583;48.714;9.386;2022-10-16T00:33:11;12.68;;;3.42;;
44850;SDS011;30583;48.714;9.386;2022-10-16T00:35:36;7.60;;;2.78;;
44850;SDS011;30583;48.714;9.386;2022-10-16T00:38:02;6.50;;;2.80;;
44850;SDS011;30583;48.714;9.386;2022-10-16T00:40:27;9.88;;;3.00;;
44850;SDS011;30583;48.714;9.386;2022-10-16T00:42:53;8.30;;;3.15;;
44850;SDS011;30583;48.714;9.386;2022-10-16T00:45:19;8.23;;;3.00;;
44850;SDS011;30583;48.714;9.386;2022-10-16T00:47:44;9.52;;;3.17;;
44850;SDS011;30583;48.714;9.386;2022-10-16T00:50:27;9.45;;;3.00;;
44850;SDS011;30583;48.714;9.386;2022-10-16T00:52:58;8.27;;;2.70;;
44850;SDS011;30583;48.714;9.386;2022-10-16T00:55:25;8.68;;;3.13;;
44850;SDS011;30583;48.714;9.386;2022-10-16T00:57:52;7.38;;;3.15;;
44850;SDS011;30583;48.714;9.386;2022-10-16T01:00:20;8.75;;;3.55;;
44850;SDS011;30583;48.714;9.386;2022-10-16T01:02:54;4.60;;;3.00;;
44850;SDS011;30583;48.714;9.386;2022-10-16T01:05:26;6.55;;;2.88;;
44850;SDS011;30583;48.714;9.386;2022-10-16T01:08:14;6.35;;;2.90;;
44850;SDS011;30583;48.714;9.386;2022-10-16T01:10:54;6.53;;;3.05;;
44850;SDS011;30583;48.714;9.386;2022-10-16T01:13:25;8.15;;;3.22;;
44850;SDS011;30583;48.714;9.386;2022-10-16T01:16:18;6.20;;;3.20;;
44850;SDS011;30583;48.714;9.386;2022-10-16T01:21:39;6.78;;;3.05;;
44850;SDS011;30583;48.714;9.386;2022-10-16T01:24:08;9.75;;;3.25;;
44850;SDS011;30583;48.714;9.386;2022-10-16T01:30:02;12.15;;;2.65;;
44850;SDS011;30583;48.714;9.386;2022-10-16T01:32:43;6.80;;;3.22;;
44850;SDS011;30583;48.714;9.386;2022-10-16T01:35:18;11.77;;;3.00;;
44850;SDS011;30583;48.714;9.386;2022-10-16T01:40:19;6.97;;;3.40;;
44850;SDS011;30583;48.714;9.386;2022-10-16T01:42:48;12.98;;;3.25;;
44850;SDS011;30583;48.714;9.386;2022-10-16T01:45:25;12.32;;;3.20;;
44850;SDS011;30583;48.714;9.386;2022-10-16T01:47:53;5.20;;;3.03;;
44850;SDS011;30583;48.714;9.386;2022-10-16T01:50:19;9.00;;;2.70;;
44850;SDS011;30583;48.714;9.386;2022-10-16T01:52:47;10.13;;;2.95;;
44850;SDS011;30583;48.714;9.386;2022-10-16T01:55:17;11.40;;;2.47;;
44850;SDS011;30583;48.714;9.386;2022-10-16T01:57:49;5.00;;;3.15;;
44850;SDS011;30583;48.714;9.386;2022-10-16T02:00:17;8.50;;;2.80;;
44850;SDS011;30583;48.714;9.386;2022-10-16T02:02:47;6.38;;;2.97;;
44850;SDS011;30583;48.714;9.386;2022-10-16T02:05:16;5.65;;;2.65;;
44850;SDS011;30583;48.714;9.386;2022-10-16T02:07:50;7.70;;;2.97;;
44850;SDS011;30583;48.714;9.386;2022-10-16T02:10:16;9.55;;;3.53;;
44850;SDS011;30583;48.714;9.386;2022-10-16T02:12:44;7.35;;;3.15;;
44850;SDS011;30583;48.714;9.386;2022-10-16T02:15:22;5.25;;;2.83;;
44850;SDS011;30583;48.714;9.386;2022-10-16T02:17:48;7.57;;;2.67;;
44850;SDS011;30583;48.714;9.386;2022-10-16T02:20:13;8.68;;;2.67;;
44850;SDS011;30583;48.714;9.386;2022-10-16T02:22:41;8.50;;;2.47;;
44850;SDS011;30583;48.714;9.386;2022-10-16T02:25:19;11.05;;;2.83;;
44850;SDS011;30583;48.714;9.386;2022-10-16T02:27:55;8.18;;;2.38;;
44850;SDS011;30583;48.714;9.386;2022-10-16T02:30:39;6.63;;;2.47;;
44850;SDS011;30583;48.714;9.386;2022-10-16T02:33:13;7.07;;;2.47;;
44850;SDS011;30583;48.714;9.386;2022-10-16T02:35:40;7.35;;;2.65;;
44850;SDS011;30583;48.714;9.386;2022-10-16T02:38:08;7.00;;;2.75;;
44850;SDS011;30583;48.714;9.386;2022-10-16T02:40:34;8.57;;;2.00;;
44850;SDS011;30583;48.714;9.386;2022-10-16T02:43:02;8.63;;;2.33;;
44850;SDS011;30583;48.714;9.386;2022-10-16T02:45:29;6.53;;;2.40;;
44850;SDS011;30583;48.714;9.386;2022-10-16T02:47:55;6.63;;;2.15;;
44850;SDS011;30583;48.714;9.386;2022-10-16T02:50:21;5.88;;;2.30;;
44850;SDS011;30583;48.714;9.386;2022-10-16T02:52:47;7.72;;;3.42;;
44850;SDS011;30583;48.714;9.386;2022-10-16T02:55:13;4.15;;;1.90;;
44850;SDS011;30583;48.714;9.386;2022-10-16T02:57:38;7.50;;;2.22;;
44850;SDS011;30583;48.714;9.386;2022-10-16T03:00:05;8.48;;;2.20;;
44850;SDS011;30583;48.714;9.386;2022-10-16T03:02:32;5.75;;;2.05;;
44850;SDS011;30583;48.714;9.386;2022-10-16T03:04:58;5.45;;;2.10;;
44850;SDS011;30583;48.714;9.386;2022-10-16T03:07:24;10.15;;;2.08;;
44850;SDS011;30583;48.714;9.386;2022-10-16T03:09:49;6.72;;;2.42;;
44850;SDS011;30583;48.714;9.386;2022-10-16T03:12:15;5.90;;;2.10;;
44850;SDS011;30583;48.714;9.386;2022-10-16T03:14:40;5.28;;;2.00;;
44850;SDS011;30583;48.714;9.386;2022-10-16T03:17:06;9.30;;;2.10;;
44850;SDS011;30583;48.714;9.386;2022-10-16T03:19:32;7.13;;;2.38;;
44850;SDS011;30583;48.714;9.386;2022-10-16T03:21:57;9.50;;;2.30;;
44850;SDS011;30583;48.714;9.386;2022-10-16T03:24:23;9.75;;;2.13;;
44850;SDS011;30583;48.714;9.386;2022-10-16T03:26:48;8.27;;;2.20;;
44850;SDS011;30583;48.714;9.386;2022-10-16T03:29:14;9.68;;;2.05;;
44850;SDS011;30583;48.714;9.386;2022-10-16T03:31:40;9.00;;;2.40;;
44850;SDS011;30583;48.714;9.386;2022-10-16T03:34:05;6.95;;;2.47;;
44850;SDS011;30583;48.714;9.386;2022-10-16T03:36:31;10.07;;;1.73;;
44850;SDS011;30583;48.714;9.386;2022-10-16T03:38:56;7.70;;;2.10;;
44850;SDS011;30583;48.714;9.386;2022-10-16T03:41:22;6.25;;;2.45;;
44850;SDS011;30583;48.714;9.386;2022-10-16T03:43:48;6.43;;;1.92;;
44850;SDS011;30583;48.714;9.386;2022-10-16T03:46:13;11.63;;;2.35;;
44850;SDS011;30583;48.714;9.386;2022-10-16T03:48:39;9.15;;;2.10;;
44850;SDS011;30583;48.714;9.386;2022-10-16T03:51:05;3.88;;;1.95;;
44850;SDS011;30583;48.714;9.386;2022-10-16T03:53:30;7.10;;;2.25;;
44850;SDS011;30583;48.714;9.386;2022-10-16T03:55:56;4.78;;;2.00;;
44850;SDS011;30583;48.714;9.386;2022-10-16T03:58:22;8.07;;;2.30;;
44850;SDS011;30583;48.714;9.386;2022-10-16T04:00:47;6.20;;;2.13;;
44850;SDS011;30583;48.714;9.386;2022-10-16T04:03:13;6.53;;;1.95;;
44850;SDS011;30583;48.714;9.386;2022-10-16T04:05:39;7.45;;;2.30;;
44850;SDS011;30583;48.714;9.386;2022-10-16T04:08:05;7.68;;;2.30;;
44850;SDS011;30583;48.714;9.386;2022-10-16T04:10:31;11.30;;;2.35;;
44850;SDS011;30583;48.714;9.386;2022-10-16T04:12:57;6.30;;;2.42;;
44850;SDS011;30583;48.714;9.386;2022-10-16T04:15:23;5.95;;;2.35;;
44850;SDS011;30583;48.714;9.386;2022-10-16T04:17:49;7.88;;;2.22;;
44850;SDS011;30583;48.714;9.386;2022-10-16T04:20:14;11.93;;;2.63;;
44850;SDS011;30583;48.714;9.386;2022-10-16T04:22:40;7.72;;;2.50;;
44850;SDS011;30583;48.714;9.386;2022-10-16T04:25:06;4.75;;;2.08;;
44850;SDS011;30583;48.714;9.386;2022-10-16T04:27:31;5.88;;;1.95;;
44850;SDS011;30583;48.714;9.386;2022-10-16T04:29:58;3.88;;;2.05;;
44850;SDS011;30583;48.714;9.386;2022-10-16T04:32:24;6.50;;;1.83;;
44850;SDS011;30583;48.714;9.386;2022-10-16T04:34:50;5.50;;;2.08;;
44850;SDS011;30583;48.714;9.386;2022-10-16T04:37:15;6.13;;;1.77;;
44850;SDS011;30583;48.714;9.386;2022-10-16T04:39:41;5.63;;;1.90;;
44850;SDS011;30583;48.714;9.386;2022-10-16T04:42:07;4.53;;;1.75;;
44850;SDS011;30583;48.714;9.386;2022-10-16T04:44:32;3.47;;;2.00;;
44850;SDS011;30583;48.714;9.386;2022-10-16T04:46:58;6.35;;;1.98;;
44850;SDS011;30583;48.714;9.386;2022-10-16T04:49:23;5.03;;;2.30;;
44850;SDS011;30583;48.714;9.386;2022-10-16T04:51:49;4.38;;;2.33;;
44850;SDS011;30583;48.714;9.386;2022-10-16T04:54:14;8.60;;;1.80;;
44850;SDS011;30583;48.714;9.386;2022-10-16T04:56:40;3.90;;;1.80;;
44850;SDS011;30583;48.714;9.386;2022-10-16T04:59:11;4.28;;;1.80;;
44850;SDS011;30583;48.714;9.386;2022-10-16T05:01:38;5.68;;;2.40;;
44850;SDS011;30583;48.714;9.386;2022-10-16T05:04:04;8.18;;;1.95;;
44850;SDS011;30583;48.714;9.386;2022-10-16T05:06:29;7.13;;;2.20;;
44850;SDS011;30583;48.714;9.386;2022-10-16T05:08:55;8.27;;;2.00;;
44850;SDS011;30583;48.714;9.386;2022-10-16T05:11:20;8.23;;;2.75;;
44850;SDS011;30583;48.714;9.386;2022-10-16T05:13:46;7.85;;;2.75;;
44850;SDS011;30583;48.714;9.386;2022-10-16T05:16:11;15.40;;;3.13;;
44850;SDS011;30583;48.714;9.386;2022-10-16T05:18:37;9.00;;;2.72;;
44850;SDS011;30583;48.714;9.386;2022-10-16T05:21:03;10.27;;;2.40;;
44850;SDS011;30583;48.714;9.386;2022-10-16T05:23:28;5.28;;;1.95;;
44850;SDS011;30583;48.714;9.386;2022-10-16T05:25:57;7.10;;;2.58;;
44850;SDS011;30583;48.714;9.386;2022-10-16T05:28:27;5.32;;;2.90;;
44850;SDS011;30583;48.714;9.386;2022-10-16T05:30:55;9.98;;;3.85;;
44850;SDS011;30583;48.714;9.386;2022-10-16T05:33:21;7.68;;;2.63;;
44850;SDS011;30583;48.714;9.386;2022-10-16T05:35:47;4.63;;;2.22;;
44850;SDS011;30583;48.714;9.386;2022-10-16T05:38:13;6.05;;;2.03;;
44850;SDS011;30583;48.714;9.386;2022-10-16T05:40:38;5.50;;;2.08;;
44850;SDS011;30583;48.714;9.386;2022-10-16T05:43:04;5.22;;;2.08;;
44850;SDS011;30583;48.714;9.386;2022-10-16T05:45:30;9.98;;;2.15;;
44850;SDS011;30583;48.714;9.386;2022-10-16T05:47:55;6.50;;;1.85;;
44850;SDS011;30583;48.714;9.386;2022-10-16T05:50:21;8.63;;;2.00;;
44850;SDS011;30583;48.714;9.386;2022-10-16T05:52:46;6.45;;;1.95;;
44850;SDS011;30583;48.714;9.386;2022-10-16T05:55:12;7.75;;;2.13;;
44850;SDS011;30583;48.714;9.386;2022-10-16T05:57:37;6.53;;;2.50;;
44850;SDS011;30583;48.714;9.386;2022-10-16T06:00:03;10.40;;;2.90;;
44850;SDS011;30583;48.714;9.386;2022-10-16T06:02:29;15.52;;;3.50;;
44850;SDS011;30583;48.714;9.386;2022-10-16T06:04:55;9.65;;;2.70;;
44850;SDS011;30583;48.714;9.386;2022-10-16T06:07:21;7.82;;;2.03;;
44850;SDS011;30583;48.714;9.386;2022-10-16T06:09:48;6.95;;;1.90;;
44850;SDS011;30583;48.714;9.386;2022-10-16T06:12:14;6.47;;;1.88;;
44850;SDS011;30583;48.714;9.386;2022-10-16T06:14:41;10.70;;;2.20;;
44850;SDS011;30583;48.714;9.386;2022-10-16T06:17:06;5.28;;;2.08;;
44850;SDS011;30583;48.714;9.386;2022-10-16T06:19:32;12.48;;;2.38;;
44850;SDS011;30583;48.714;9.386;2022-10-16T06:21:57;4.65;;;2.03;;
44850;SDS011;30583;48.714;9.386;2022-10-16T06:24:23;10.02;;;2.67;;
44850;SDS011;30583;48.714;9.386;2022-10-16T06:26:49;4.80;;;2.30;;
44850;SDS011;30583;48.714;9.386;2022-10-16T06:29:15;8.52;;;2.10;;
44850;SDS011;30583;48.714;9.386;2022-10-16T06:31:41;5.35;;;2.22;;
44850;SDS011;30583;48.714;9.386;2022-10-16T06:34:09;10.63;;;2.70;;
44850;SDS011;30583;48.714;9.386;2022-10-16T06:36:36;10.77;;;2.50;;
44850;SDS011;30583;48.714;9.386;2022-10-16T06:39:03;5.32;;;2.20;;
44850;SDS011;30583;48.714;9.386;2022-10-16T06:41:29;6.05;;;1.85;;
44850;SDS011;30583;48.714;9.386;2022-10-16T06:43:55;6.93;;;2.20;;
44850;SDS011;30583;48.714;9.386;2022-10-16T06:46:21;7.47;;;2.10;;
44850;SDS011;30583;48.714;9.386;2022-10-16T06:48:49;7.50;;;1.90;;
44850;SDS011;30583;48.714;9.386;2022-10-16T06:51:15;7.85;;;2.10;;
44850;SDS011;30583;48.714;9.386;2022-10-16T06:53:47;9.98;;;2.00;;
44850;SDS011;30583;48.714;9.386;2022-10-16T06:56:17;8.10;;;1.98;;
44850;SDS011;30583;48.714;9.386;2022-10-16T06:58:45;5.85;;;1.80;;
44850;SDS011;30583;48.714;9.386;2022-10-16T07:01:11;4.72;;;1.73;;
44850;SDS011;30583;48.714;9.386;2022-10-16T07:03:38;6.82;;;2.50;;
44850;SDS011;30583;48.714;9.386;2022-10-16T07:06:05;7.63;;;2.05;;
44850;SDS011;30583;48.714;9.386;2022-10-16T07:08:35;9.02;;;2.58;;
44850;SDS011;30583;48.714;9.386;2022-10-16T07:11:04;4.88;;;2.20;;
44850;SDS011;30583;48.714;9.386;2022-10-16T07:13:35;5.68;;;2.15;;
44850;SDS011;30583;48.714;9.386;2022-10-16T07:16:08;9.15;;;2.70;;
44850;SDS011;30583;48.714;9.386;2022-10-16T07:18:39;7.97;;;2.55;;
44850;SDS011;30583;48.714;9.386;2022-10-16T07:23:32;9.10;;;2.15;;
44850;SDS011;30583;48.714;9.386;2022-10-16T07:25:58;4.22;;;2.30;;
44850;SDS011;30583;48.714;9.386;2022-10-16T07:28:24;4.78;;;2.42;;
44850;SDS011;30583;48.714;9.386;2022-10-16T07:30:50;11.52;;;2.85;;
44850;SDS011;30583;48.714;9.386;2022-10-16T07:33:15;11.02;;;2.63;;
44850;SDS011;30583;48.714;9.386;2022-10-16T07:35:48;6.13;;;2.40;;
44850;SDS011;30583;48.714;9.386;2022-10-16T07:38:17;9.48;;;2.42;;
44850;SDS011;30583;48.714;9.386;2022-10-16T07:40:43;5.85;;;2.47;;
44850;SDS011;30583;48.714;9.386;2022-10-16T07:43:09;6.28;;;2.20;;
44850;SDS011;30583;48.714;9.386;2022-10-16T07:45:34;8.95;;;2.22;;
44850;SDS011;30583;48.714;9.386;2022-10-16T07:48:00;7.90;;;2.25;;
44850;SDS011;30583;48.714;9.386;2022-10-16T07:50:25;7.35;;;2.13;;
44850;SDS011;30583;48.714;9.386;2022-10-16T07:52:51;6.45;;;2.50;;
44850;SDS011;30583;48.714;9.386;2022-10-16T07:55:17;7.60;;;2.20;;
44850;SDS011;30583;48.714;9.386;2022-10-16T07:57:43;6.05;;;2.50;;
44850;SDS011;30583;48.714;9.386;2022-10-16T08:00:08;5.47;;;2.10;;
44850;SDS011;30583;48.714;9.386;2022-10-16T08:02:38;4.97;;;2.22;;
44850;SDS011;30583;48.714;9.386;2022-10-16T08:05:05;5.40;;;2.58;;
44850;SDS011;30583;48.714;9.386;2022-10-16T08:07:31;5.00;;;2.20;;
44850;SDS011;30583;48.714;9.386;2022-10-16T08:09:57;5.25;;;1.80;;
44850;SDS011;30583;48.714;9.386;2022-10-16T08:12:23;6.03;;;2.30;;
44850;SDS011;30583;48.714;9.386;2022-10-16T08:14:49;6.03;;;2.20;;
44850;SDS011;30583;48.714;9.386;2022-10-16T08:17:15;14.52;;;2.20;;
44850;SDS011;30583;48.714;9.386;2022-10-16T08:19:44;8.05;;;1.83;;
44850;SDS011;30583;48.714;9.386;2022-10-16T08:22:13;6.75;;;2.08;;
44850;SDS011;30583;48.714;9.386;2022-10-16T08:24:39;3.65;;;1.67;;
44850;SDS011;30583;48.714;9.386;2022-10-16T08:27:04;8.15;;;2.00;;
44850;SDS011;30583;48.714;9.386;2022-10-16T08:29:33;5.20;;;2.17;;
44850;SDS011;30583;48.714;9.386;2022-10-16T08:31:59;6.13;;;3.58;;
44850;SDS011;30583;48.714;9.386;2022-10-16T08:34:25;7.05;;;3.70;;
44850;SDS011;30583;48.714;9.386;2022-10-16T08:36:52;5.70;;;2.78;;
44850;SDS011;30583;48.714;9.386;2022-10-16T08:39:18;5.40;;;2.78;;
44850;SDS011;30583;48.714;9.386;2022-10-16T08:44:52;6.32;;;2.25;;
44850;SDS011;30583;48.714;9.386;2022-10-16T08:47:53;7.88;;;2.90;;
44850;SDS011;30583;48.714;9.386;2022-10-16T08:50:31;6.50;;;2.03;;
44850;SDS011;30583;48.714;9.386;2022-10-16T08:53:01;7.30;;;2.53;;
44850;SDS011;30583;48.714;9.386;2022-10-16T08:58:15;5.78;;;2.40;;
44850;SDS011;30583;48.714;9.386;2022-10-16T09:00:43;5.28;;;2.60;;
44850;SDS011;30583;48.714;9.386;2022-10-16T09:03:21;4.82;;;1.63;;
44850;SDS011;30583;48.714;9.386;2022-10-16T09:09:54;10.35;;;2.22;;
44850;SDS011;30583;48.714;9.386;2022-10-16T09:15:32;4.10;;;2.35;;
44850;SDS011;30583;48.714;9.386;2022-10-16T09:18:25;5.65;;;2.30;;
44850;SDS011;30583;48.714;9.386;2022-10-16T09:23:33;4.93;;;2.70;;
44850;SDS011;30583;48.714;9.386;2022-10-16T09:26:01;3.20;;;1.70;;
44850;SDS011;30583;48.714;9.386;2022-10-16T09:28:27;7.95;;;2.10;;
44850;SDS011;30583;48.714;9.386;2022-10-16T09:30:53;6.88;;;2.15;;
44850;SDS011;30583;48.714;9.386;2022-10-16T09:33:20;4.00;;;1.63;;
44850;SDS011;30583;48.714;9.386;2022-10-16T09:35:53;4.88;;;2.03;;
44850;SDS011;30583;48.714;9.386;2022-10-16T09:38:30;9.20;;;3.83;;
44850;SDS011;30583;48.714;9.386;2022-10-16T09:41:00;12.02;;;4.40;;
44850;SDS011;30583;48.714;9.386;2022-10-16T09:46:30;4.30;;;2.00;;
44850;SDS011;30583;48.714;9.386;2022-10-16T09:48:58;6.32;;;1.75;;
44850;SDS011;30583;48.714;9.386;2022-10-16T09:51:27;6.05;;;1.67;;
44850;SDS011;30583;48.714;9.386;2022-10-16T09:56:39;5.57;;;1.73;;
44850;SDS011;30583;48.714;9.386;2022-10-16T09:59:10;5.47;;;1.98;;
44850;SDS011;30583;48.714;9.386;2022-10-16T10:04:20;8.00;;;1.70;;
44850;SDS011;30583;48.714;9.386;2022-10-16T10:06:51;5.70;;;2.15;;
44850;SDS011;30583;48.714;9.386;2022-10-16T10:11:54;7.38;;;2.33;;
44850;SDS011;30583;48.714;9.386;2022-10-16T10:14:28;5.75;;;1.95;;
44850;SDS011;30583;48.714;9.386;2022-10-16T10:19:36;3.90;;;1.75;;
44850;SDS011;30583;48.714;9.386;2022-10-16T10:22:17;3.22;;;1.73;;
44850;SDS011;30583;48.714;9.386;2022-10-16T10:25:54;3.78;;;1.70;;
44850;SDS011;30583;48.714;9.386;2022-10-16T10:28:10;5.63;;;1.40;;
44850;SDS011;30583;48.714;9.386;2022-10-16T10:46:55;3.92;;;2.00;;
44850;SDS011;30583;48.714;9.386;2022-10-16T10:55:27;5.47;;;1.63;;
44850;SDS011;30583;48.714;9.386;2022-10-16T10:58:20;4.00;;;2.00;;
44850;SDS011;30583;48.714;9.386;2022-10-16T11:03:42;4.32;;;1.75;;
44850;SDS011;30583;48.714;9.386;2022-10-16T11:06:33;5.78;;;2.30;;
44850;SDS011;30583;48.714;9.386;2022-10-16T11:09:13;4.32;;;1.55;;
44850;SDS011;30583;48.714;9.386;2022-10-16T11:14:57;14.68;;;2.47;;
44850;SDS011;30583;48.714;9.386;2022-10-16T11:17:44;3.22;;;1.60;;
44850;SDS011;30583;48.714;9.386;2022-10-16T11:20:22;5.70;;;1.67;;
44850;SDS011;30583;48.714;9.386;2022-10-16T11:22:54;10.18;;;1.70;;
44850;SDS011;30583;48.714;9.386;2022-10-16T11:25:29;6.28;;;1.52;;
44850;SDS011;30583;48.714;9.386;2022-10-16T11:30:26;6.53;;;1.60;;
44850;SDS011;30583;48.714;9.386;2022-10-16T11:33:10;4.78;;;1.33;;
44850;SDS011;30583;48.714;9.386;2022-10-16T11:35:50;5.03;;;1.40;;
44850;SDS011;30583;48.714;9.386;2022-10-16T11:41:24;4.88;;;1.30;;
44850;SDS011;30583;48.714;9.386;2022-10-16T11:44:18;4.78;;;1.88;;
44850;SDS011;30583;48.714;9.386;2022-10-16T11:46:51;5.78;;;3.80;;
44850;SDS011;30583;48.714;9.386;2022-10-16T11:49:26;3.58;;;2.47;;
44850;SDS011;30583;48.714;9.386;2022-10-16T11:54:49;4.22;;;1.35;;
44850;SDS011;30583;48.714;9.386;2022-10-16T11:57:38;2.75;;;1.23;;
44850;SDS011;30583;48.714;9.386;2022-10-16T12:00:09;5.80;;;1.90;;
44850;SDS011;30583;48.714;9.386;2022-10-16T12:08:12;4.43;;;1.08;;
44850;SDS011;30583;48.714;9.386;2022-10-16T12:10:41;2.03;;;1.13;;
44850;SDS011;30583;48.714;9.386;2022-10-16T12:16:31;3.47;;;1.13;;
44850;SDS011;30583;48.714;9.386;2022-10-16T12:18:50;3.88;;;1.60;;
44850;SDS011;30583;48.714;9.386;2022-10-16T12:21:39;1.92;;;1.30;;
44850;SDS011;30583;48.714;9.386;2022-10-16T12:24:05;3.30;;;1.23;;
44850;SDS011;30583;48.714;9.386;2022-10-16T12:26:37;3.03;;;1.20;;
44850;SDS011;30583;48.714;9.386;2022-10-16T12:29:13;5.95;;;1.50;;
44850;SDS011;30583;48.714;9.386;2022-10-16T12:31:59;1.85;;;1.02;;
44850;SDS011;30583;48.714;9.386;2022-10-16T12:34:41;6.80;;;1.30;;
44850;SDS011;30583;48.714;9.386;2022-10-16T12:37:14;3.10;;;1.40;;
44850;SDS011;30583;48.714;9.386;2022-10-16T12:39:58;7.53;;;1.50;;
44850;SDS011;30583;48.714;9.386;2022-10-16T12:44:53;2.17;;;1.00;;
44850;SDS011;30583;48.714;9.386;2022-10-16T12:47:20;4.85;;;1.30;;
44850;SDS011;30583;48.714;9.386;2022-10-16T12:49:58;3.17;;;1.20;;
44850;SDS011;30583;48.714;9.386;2022-10-16T12:52:28;3.05;;;1.42;;
44850;SDS011;30583;48.714;9.386;2022-10-16T12:55:02;3.08;;;1.23;;
44850;SDS011;30583;48.714;9.386;2022-10-16T12:57:32;1.92;;;1.40;;
44850;SDS011;30583;48.714;9.386;2022-10-16T13:00:25;5.45;;;1.17;;
44850;SDS011;30583;48.714;9.386;2022-10-16T13:06:14;2.45;;;1.30;;
44850;SDS011;30583;48.714;9.386;2022-10-16T13:09:09;5.20;;;1.90;;
44850;SDS011;30583;48.714;9.386;2022-10-16T13:14:49;3.65;;;1.67;;
44850;SDS011;30583;48.714;9.386;2022-10-16T13:17:38;2.60;;;1.40;;
44850;SDS011;30583;48.714;9.386;2022-10-16T13:20:35;4.60;;;1.40;;
44850;SDS011;30583;48.714;9.386;2022-10-16T13:23:13;2.13;;;1.10;;
44850;SDS011;30583;48.714;9.386;2022-10-16T13:28:10;6.05;;;1.50;;
44850;SDS011;30583;48.714;9.386;2022-10-16T13:30:44;2.60;;;1.00;;
44850;SDS011;30583;48.714;9.386;2022-10-16T13:33:18;5.05;;;1.38;;
44850;SDS011;30583;48.714;9.386;2022-10-16T13:38:17;3.17;;;1.30;;
44850;SDS011;30583;48.714;9.386;2022-10-16T13:41:03;2.08;;;1.20;;
44850;SDS011;30583;48.714;9.386;2022-10-16T13:43:34;3.65;;;1.20;;
44850;SDS011;30583;48.714;9.386;2022-10-16T13:46:15;2.92;;;0.98;;
44850;SDS011;30583;48.714;9.386;2022-10-16T13:48:43;8.95;;;1.52;;
44850;SDS011;30583;48.714;9.386;2022-10-16T13:51:16;6.43;;;1.33;;
44850;SDS011;30583;48.714;9.386;2022-10-16T13:53:43;3.97;;;1.42;;
44850;SDS011;30583;48.714;9.386;2022-10-16T13:56:11;1.83;;;1.10;;
44850;SDS011;30583;48.714;9.386;2022-10-16T13:58:39;6.57;;;1.52;;
44850;SDS011;30583;48.714;9.386;2022-10-16T14:01:51;3.10;;;1.70;;
44850;SDS011;30583;48.714;9.386;2022-10-16T14:03:53;2.28;;;1.00;;
44850;SDS011;30583;48.714;9.386;2022-10-16T14:06:33;4.47;;;1.17;;
44850;SDS011;30583;48.714;9.386;2022-10-16T14:09:00;3.75;;;1.30;;
44850;SDS011;30583;48.714;9.386;2022-10-16T14:11:31;1.27;;;1.00;;
44850;SDS011;30583;48.714;9.386;2022-10-16T14:13:59;1.50;;;1.00;;
44850;SDS011;30583;48.714;9.386;2022-10-16T14:16:26;3.95;;;1.42;;
44850;SDS011;30583;48.714;9.386;2022-10-16T14:19:03;10.23;;;2.15;;
44850;SDS011;30583;48.714;9.386;2022-10-16T14:21:31;4.95;;;1.75;;
44850;SDS011;30583;48.714;9.386;2022-10-16T14:23:58;2.47;;;1.48;;
44850;SDS011;30583;48.714;9.386;2022-10-16T14:26:26;2.92;;;1.70;;
44850;SDS011;30583;48.714;9.386;2022-10-16T14:29:13;4.03;;;1.23;;
44850;SDS011;30583;48.714;9.386;2022-10-16T14:31:56;2.88;;;1.42;;
44850;SDS011;30583;48.714;9.386;2022-10-16T14:34:31;4.20;;;1.30;;
44850;SDS011;30583;48.714;9.386;2022-10-16T14:39:54;4.57;;;1.80;;
44850;SDS011;30583;48.714;9.386;2022-10-16T14:42:21;4.55;;;1.98;;
44850;SDS011;30583;48.714;9.386;2022-10-16T14:44:49;6.82;;;1.67;;
44850;SDS011;30583;48.714;9.386;2022-10-16T14:47:18;3.30;;;1.95;;
44850;SDS011;30583;48.714;9.386;2022-10-16T14:49:49;6.95;;;2.30;;
44850;SDS011;30583;48.714;9.386;2022-10-16T14:52:15;3.75;;;1.92;;
44850;SDS011;30583;48.714;9.386;2022-10-16T14:54:41;4.45;;;1.80;;
44850;SDS011;30583;48.714;9.386;2022-10-16T14:57:15;2.67;;;1.60;;
44850;SDS011;30583;48.714;9.386;2022-10-16T14:59:43;5.43;;;2.00;;
44850;SDS011;30583;48.714;9.386;2022-10-16T15:02:18;3.65;;;2.03;;
44850;SDS011;30583;48.714;9.386;2022-10-16T15:04:45;5.03;;;2.40;;
44850;SDS011;30583;48.714;9.386;2022-10-16T15:07:12;5.82;;;2.08;;
44850;SDS011;30583;48.714;9.386;2022-10-16T15:09:37;4.82;;;1.60;;
44850;SDS011;30583;48.714;9.386;2022-10-16T15:12:03;6.82;;;1.60;;
44850;SDS011;30583;48.714;9.386;2022-10-16T15:14:29;5.13;;;1.17;;
44850;SDS011;30583;48.714;9.386;2022-10-16T15:16:54;1.98;;;1.27;;
44850;SDS011;30583;48.714;9.386;2022-10-16T15:19:20;2.65;;;1.30;;
44850;SDS011;30583;48.714;9.386;2022-10-16T15:21:45;5.38;;;1.50;;
44850;SDS011;30583;48.714;9.386;2022-10-16T15:24:12;4.22;;;1.73;;
44850;SDS011;30583;48.714;9.386;2022-10-16T15:26:38;3.45;;;1.30;;
44850;SDS011;30583;48.714;9.386;2022-10-16T15:29:04;2.35;;;1.23;;
44850;SDS011;30583;48.714;9.386;2022-10-16T15:31:30;3.83;;;1.85;;
44850;SDS011;30583;48.714;9.386;2022-10-16T15:33:57;7.32;;;1.55;;
44850;SDS011;30583;48.714;9.386;2022-10-16T15:36:31;3.97;;;1.60;;
44850;SDS011;30583;48.714;9.386;2022-10-16T15:38:59;2.97;;;1.50;;
44850;SDS011;30583;48.714;9.386;2022-10-16T15:41:25;4.78;;;1.90;;
44850;SDS011;30583;48.714;9.386;2022-10-16T15:43:51;4.93;;;1.90;;
44850;SDS011;30583;48.714;9.386;2022-10-16T15:46:18;3.17;;;2.05;;
44850;SDS011;30583;48.714;9.386;2022-10-16T15:48:45;7.13;;;2.50;;
44850;SDS011;30583;48.714;9.386;2022-10-16T15:51:11;5.28;;;2.20;;
44850;SDS011;30583;48.714;9.386;2022-10-16T15:53:37;6.00;;;1.90;;
44850;SDS011;30583;48.714;9.386;2022-10-16T15:56:03;5.65;;;2.67;;
44850;SDS011;30583;48.714;9.386;2022-10-16T15:58:29;7.97;;;2.28;;
44850;SDS011;30583;48.714;9.386;2022-10-16T16:00:55;5.50;;;1.45;;
44850;SDS011;30583;48.714;9.386;2022-10-16T16:03:21;6.10;;;1.90;;
44850;SDS011;30583;48.714;9.386;2022-10-16T16:05:47;4.28;;;2.17;;
44850;SDS011;30583;48.714;9.386;2022-10-16T16:08:13;7.13;;;2.30;;
44850;SDS011;30583;48.714;9.386;2022-10-16T16:10:38;8.45;;;3.13;;
44850;SDS011;30583;48.714;9.386;2022-10-16T16:13:04;17.05;;;7.15;;
44850;SDS011;30583;48.714;9.386;2022-10-16T16:15:29;20.83;;;9.00;;
44850;SDS011;30583;48.714;9.386;2022-10-16T16:17:55;75.75;;;59.95;;
44850;SDS011;30583;48.714;9.386;2022-10-16T16:20:21;50.60;;;30.58;;
44850;SDS011;30583;48.714;9.386;2022-10-16T16:22:46;136.13;;;101.55;;
44850;SDS011;30583;48.714;9.386;2022-10-16T16:25:12;148.25;;;106.13;;
44850;SDS011;30583;48.714;9.386;2022-10-16T16:27:38;55.22;;;36.00;;
44850;SDS011;30583;48.714;9.386;2022-10-16T16:30:04;53.53;;;34.20;;
44850;SDS011;30583;48.714;9.386;2022-10-16T16:32:34;23.17;;;11.02;;
44850;SDS011;30583;48.714;9.386;2022-10-16T16:35:00;47.22;;;21.50;;
44850;SDS011;30583;48.714;9.386;2022-10-16T16:37:27;35.67;;;15.98;;
44850;SDS011;30583;48.714;9.386;2022-10-16T16:39:52;28.40;;;13.23;;
44850;SDS011;30583;48.714;9.386;2022-10-16T16:42:20;17.45;;;7.63;;